createdAt,value
2018-12-26T00:00:34.889Z,8.20
2018-12-26T00:03:03.885Z,5.03
2018-12-26T00:05:33.008Z,5.07
2018-12-26T00:08:02.005Z,9.13
2018-12-26T00:10:31.242Z,6.23
2018-12-26T00:13:01.074Z,4.50
2018-12-26T00:15:30.071Z,6.67
2018-12-26T00:17:59.124Z,5.60
2018-12-26T00:20:28.089Z,7.20
2018-12-26T00:22:57.099Z,5.97
2018-12-26T00:25:26.059Z,6.03
2018-12-26T00:27:55.033Z,6.80
2018-12-26T00:30:24.077Z,8.00
2018-12-26T00:32:53.074Z,6.17
2018-12-26T00:35:22.042Z,6.83
2018-12-26T00:37:51.102Z,9.13
2018-12-26T00:40:20.083Z,6.27
2018-12-26T00:42:49.116Z,7.87
2018-12-26T00:45:18.094Z,6.60
2018-12-26T00:47:47.571Z,9.50
2018-12-26T00:50:16.526Z,6.03
2018-12-26T00:52:45.516Z,8.20
2018-12-26T00:55:14.478Z,7.90
2018-12-26T00:57:43.486Z,7.57
2018-12-26T01:00:12.483Z,7.73
2018-12-26T01:02:41.477Z,7.73
2018-12-26T01:05:10.515Z,8.07
2018-12-26T01:07:39.607Z,8.03
2018-12-26T01:10:08.643Z,7.47
2018-12-26T01:12:37.597Z,9.03
2018-12-26T01:15:06.677Z,6.03
2018-12-26T01:17:35.664Z,5.17
2018-12-26T01:20:05.221Z,8.53
2018-12-26T01:22:34.257Z,7.93
2018-12-26T01:25:03.314Z,6.67
2018-12-26T01:27:32.446Z,5.70
2018-12-26T01:30:01.447Z,6.63
2018-12-26T01:32:30.420Z,7.93
2018-12-26T01:34:59.432Z,5.83
2018-12-26T01:37:28.404Z,5.57
2018-12-26T01:39:57.438Z,6.37
2018-12-26T01:42:26.423Z,7.90
2018-12-26T01:44:55.454Z,8.23
2018-12-26T01:47:24.466Z,6.83
2018-12-26T01:49:53.510Z,8.80
2018-12-26T01:52:22.551Z,9.10
2018-12-26T01:54:51.591Z,6.27
2018-12-26T01:57:21.302Z,7.50
2018-12-26T01:59:50.254Z,5.27
2018-12-26T02:02:19.214Z,6.47
2018-12-26T02:04:48.182Z,7.03
2018-12-26T02:07:17.263Z,9.17
2018-12-26T02:09:46.259Z,7.63
2018-12-26T02:12:16.185Z,7.73
2018-12-26T02:14:45.216Z,6.70
2018-12-26T02:17:14.190Z,8.53
2018-12-26T02:19:43.184Z,6.03
2018-12-26T02:22:12.819Z,5.30
2018-12-26T02:24:41.866Z,7.40
2018-12-26T02:27:10.858Z,6.83
2018-12-26T02:29:39.987Z,7.47
2018-12-26T02:32:09.060Z,9.70
2018-12-26T02:34:38.082Z,5.97
2018-12-26T02:37:07.118Z,6.80
2018-12-26T02:39:36.104Z,8.87
2018-12-26T02:42:05.121Z,6.37
2018-12-26T02:44:34.127Z,7.90
2018-12-26T02:47:03.222Z,5.70
2018-12-26T02:49:32.345Z,8.57
2018-12-26T02:52:01.329Z,7.70
2018-12-26T02:54:30.270Z,9.60
2018-12-26T02:56:59.270Z,9.13
2018-12-26T02:59:28.257Z,7.73
2018-12-26T03:01:57.249Z,9.23
2018-12-26T03:04:26.248Z,7.73
2018-12-26T03:06:56.677Z,9.73
2018-12-26T03:09:25.660Z,7.43
2018-12-26T03:11:54.639Z,9.57
2018-12-26T03:14:23.615Z,10.90
2018-12-26T03:16:52.582Z,10.33
2018-12-26T03:19:22.496Z,11.50
2018-12-26T03:21:52.240Z,10.67
2018-12-26T03:24:21.353Z,10.90
2018-12-26T03:26:56.152Z,10.27
2018-12-26T03:29:19.265Z,13.33
2018-12-26T03:31:48.243Z,11.40
2018-12-26T03:34:17.199Z,14.50
2018-12-26T03:36:46.293Z,13.10
2018-12-26T03:39:15.282Z,11.80
2018-12-26T03:41:44.230Z,14.77
2018-12-26T03:44:15.312Z,15.53
2018-12-26T03:46:44.287Z,14.57
2018-12-26T03:49:13.310Z,15.03
2018-12-26T03:51:42.309Z,16.20
2018-12-26T03:54:11.378Z,14.07
2018-12-26T03:56:40.464Z,15.03
2018-12-26T03:59:09.497Z,15.07
2018-12-26T04:01:38.683Z,15.93
2018-12-26T04:04:07.802Z,19.07
2018-12-26T04:06:36.857Z,15.30
2018-12-26T04:09:07.974Z,19.07
2018-12-26T04:11:36.980Z,15.87
2018-12-26T04:14:06.037Z,17.43
2018-12-26T04:16:35.049Z,16.37
2018-12-26T04:19:04.111Z,17.33
2018-12-26T04:21:33.150Z,15.30
2018-12-26T04:24:02.177Z,16.53
2018-12-26T04:26:31.352Z,17.67
2018-12-26T04:29:00.437Z,16.60
2018-12-26T04:31:29.449Z,18.77
2018-12-26T04:33:58.474Z,16.27
2018-12-26T04:36:27.415Z,19.73
2018-12-26T04:38:56.530Z,20.67
2018-12-26T04:41:25.687Z,19.80
2018-12-26T04:43:54.667Z,16.00
2018-12-26T04:46:23.687Z,20.67
2018-12-26T04:48:52.690Z,18.33
2018-12-26T04:51:22.148Z,16.87
2018-12-26T04:53:51.261Z,17.23
2018-12-26T04:56:20.682Z,18.20
2018-12-26T04:58:49.707Z,17.47
2018-12-26T05:01:18.669Z,17.00
2018-12-26T05:03:47.664Z,19.13
2018-12-26T05:06:16.640Z,19.30
2018-12-26T05:08:45.640Z,18.90
2018-12-26T05:11:14.648Z,23.00
2018-12-26T05:13:43.688Z,18.80
2018-12-26T05:16:12.812Z,20.97
2018-12-26T05:18:41.878Z,21.03
2018-12-26T05:21:10.931Z,21.23
2018-12-26T05:23:40.029Z,20.30
2018-12-26T05:26:09.066Z,22.07
2018-12-26T05:28:38.141Z,23.93
2018-12-26T05:31:07.205Z,21.53
2018-12-26T05:33:36.235Z,27.20
2018-12-26T05:36:05.267Z,24.53
2018-12-26T05:38:34.341Z,22.83
2018-12-26T05:41:03.339Z,23.87
2018-12-26T05:43:32.329Z,23.27
2018-12-26T05:46:01.358Z,23.10
2018-12-26T05:48:30.430Z,23.97
2018-12-26T05:50:59.453Z,22.03
2018-12-26T05:53:28.432Z,24.20
2018-12-26T05:55:57.445Z,23.70
2018-12-26T05:58:26.401Z,27.73
2018-12-26T06:00:55.405Z,27.17
2018-12-26T06:03:24.401Z,23.87
2018-12-26T06:05:53.371Z,23.73
2018-12-26T06:08:22.304Z,21.77
2018-12-26T06:10:51.282Z,22.40
2018-12-26T06:13:20.410Z,25.90
2018-12-26T06:15:49.453Z,27.87
2018-12-26T06:18:18.460Z,26.80
2018-12-26T06:20:47.530Z,26.53
2018-12-26T06:23:16.534Z,23.23
2018-12-26T06:25:45.695Z,24.57
2018-12-26T06:28:14.744Z,26.87
2018-12-26T06:30:43.798Z,23.20
2018-12-26T06:33:12.796Z,23.40
2018-12-26T06:35:41.755Z,26.33
2018-12-26T06:38:11.136Z,24.13
2018-12-26T06:40:40.333Z,25.57
2018-12-26T06:43:09.262Z,26.77
2018-12-26T06:45:38.357Z,29.60
2018-12-26T06:48:07.357Z,24.90
2018-12-26T06:50:36.395Z,27.43
2018-12-26T06:53:05.477Z,25.00
2018-12-26T06:55:34.536Z,26.70
2018-12-26T06:58:03.612Z,28.80
2018-12-26T07:00:32.680Z,30.00
2018-12-26T07:03:01.649Z,26.13
2018-12-26T07:05:30.970Z,26.13
2018-12-26T07:08:00.627Z,25.40
2018-12-26T07:10:29.877Z,28.40
2018-12-26T07:13:00.327Z,30.67
2018-12-26T07:15:29.893Z,26.33
2018-12-26T07:17:59.187Z,25.40
2018-12-26T07:20:28.280Z,28.90
2018-12-26T07:22:57.312Z,27.00
2018-12-26T07:25:27.456Z,29.60
2018-12-26T07:27:56.616Z,26.23
2018-12-26T07:30:25.595Z,28.13
2018-12-26T07:32:54.575Z,28.73
2018-12-26T07:35:23.777Z,26.17
2018-12-26T07:37:52.803Z,24.80
2018-12-26T07:40:22.070Z,25.03
2018-12-26T07:42:51.145Z,27.53
2018-12-26T07:45:21.395Z,27.93
2018-12-26T07:47:50.519Z,24.17
2018-12-26T07:50:19.524Z,24.47
2018-12-26T07:52:48.605Z,28.23
2018-12-26T07:55:17.690Z,24.43
2018-12-26T07:57:47.465Z,29.60
2018-12-26T08:00:16.601Z,26.73
2018-12-26T08:02:45.807Z,25.67
2018-12-26T08:05:14.847Z,27.10
2018-12-26T08:07:44.327Z,26.83
2018-12-26T08:10:13.273Z,23.77
2018-12-26T08:12:42.287Z,25.87
2018-12-26T08:15:11.295Z,25.27
2018-12-26T08:17:40.433Z,27.00
2018-12-26T08:20:09.382Z,26.70
2018-12-26T08:22:38.422Z,27.93
2018-12-26T08:25:07.462Z,27.33
2018-12-26T08:27:36.510Z,31.07
2018-12-26T08:30:05.693Z,29.53
2018-12-26T08:32:34.862Z,32.40
2018-12-26T08:35:04.094Z,26.10
2018-12-26T08:37:33.126Z,27.13
2018-12-26T08:40:02.161Z,29.40
2018-12-26T08:42:31.213Z,29.00
2018-12-26T08:45:00.330Z,26.07
2018-12-26T08:47:29.299Z,30.13
2018-12-26T08:49:58.469Z,29.93
2018-12-26T08:52:27.463Z,25.53
2018-12-26T08:54:56.933Z,26.07
2018-12-26T08:57:26.048Z,27.43
2018-12-26T08:59:55.015Z,26.03
2018-12-26T09:02:24.069Z,26.30
2018-12-26T09:04:53.327Z,25.73
2018-12-26T09:07:22.407Z,26.47
2018-12-26T09:09:51.731Z,27.10
2018-12-26T09:12:20.732Z,24.80
2018-12-26T09:14:50.340Z,22.43
2018-12-26T09:17:19.459Z,24.60
2018-12-26T09:19:48.553Z,23.07
2018-12-26T09:22:18.742Z,22.73
2018-12-26T09:24:47.804Z,19.77
2018-12-26T09:27:18.330Z,20.63
2018-12-26T09:29:47.791Z,20.77
2018-12-26T09:32:17.643Z,20.07
2018-12-26T09:34:46.631Z,18.30
2018-12-26T09:37:15.637Z,18.70
2018-12-26T09:39:44.691Z,17.43
2018-12-26T09:42:13.621Z,16.83
2018-12-26T09:44:42.618Z,18.03
2018-12-26T09:47:11.581Z,15.87
2018-12-26T09:49:40.658Z,17.70
2018-12-26T09:52:09.710Z,15.70
2018-12-26T09:54:38.819Z,16.13
2018-12-26T09:57:07.849Z,16.17
2018-12-26T09:59:36.971Z,15.33
2018-12-26T10:02:05.909Z,14.93
2018-12-26T10:04:34.917Z,14.27
2018-12-26T10:07:03.883Z,13.67
2018-12-26T10:09:32.873Z,17.10
2018-12-26T10:12:01.878Z,13.70
2018-12-26T10:14:30.802Z,14.60
2018-12-26T10:16:59.896Z,14.23
2018-12-26T10:19:29.004Z,14.67
2018-12-26T10:21:58.199Z,14.90
2018-12-26T10:24:27.396Z,16.23
2018-12-26T10:26:56.550Z,16.67
2018-12-26T10:29:25.636Z,15.63
2018-12-26T10:31:54.840Z,15.23
2018-12-26T10:34:23.888Z,16.70
2018-12-26T10:36:52.905Z,14.60
2018-12-26T10:39:21.946Z,15.17
2018-12-26T10:41:50.978Z,14.30
2018-12-26T10:44:20.023Z,15.53
2018-12-26T10:46:49.298Z,15.90
2018-12-26T10:49:18.421Z,15.90
2018-12-26T10:51:47.469Z,16.20
2018-12-26T10:54:16.529Z,16.97
2018-12-26T10:56:45.494Z,16.27
2018-12-26T10:59:14.847Z,17.57
2018-12-26T11:01:43.847Z,18.10
2018-12-26T11:04:13.010Z,17.53
2018-12-26T11:06:42.211Z,28.77
2018-12-26T11:09:11.561Z,17.43
2018-12-26T11:11:40.855Z,17.47
2018-12-26T11:14:09.875Z,17.23
2018-12-26T11:16:38.916Z,17.33
2018-12-26T11:19:07.862Z,20.43
2018-12-26T11:21:36.901Z,18.47
2018-12-26T11:24:05.898Z,17.07
2018-12-26T11:26:35.140Z,17.27
2018-12-26T11:29:04.272Z,19.33
2018-12-26T11:31:33.392Z,19.03
2018-12-26T11:34:02.428Z,19.30
2018-12-26T11:36:31.858Z,21.07
2018-12-26T11:39:01.030Z,19.53
2018-12-26T11:41:30.307Z,20.47
2018-12-26T11:43:59.420Z,20.10
2018-12-26T11:46:28.421Z,19.23
2018-12-26T11:48:59.643Z,17.80
2018-12-26T11:51:28.731Z,18.10
2018-12-26T11:53:57.873Z,19.70
2018-12-26T11:56:27.312Z,19.37
2018-12-26T11:58:56.365Z,21.27
2018-12-26T12:01:25.531Z,19.20
2018-12-26T12:03:54.571Z,18.63
2018-12-26T12:06:23.685Z,16.73
2018-12-26T12:08:52.798Z,17.07
2018-12-26T12:11:21.944Z,17.00
2018-12-26T12:13:50.970Z,22.13
2018-12-26T12:16:20.087Z,21.87
2018-12-26T12:18:49.368Z,22.03
2018-12-26T12:21:18.636Z,22.53
2018-12-26T12:23:47.752Z,19.03
2018-12-26T12:26:16.894Z,18.90
2018-12-26T12:28:45.948Z,21.30
2018-12-26T12:31:14.964Z,31.17
2018-12-26T12:33:43.999Z,22.43
2018-12-26T12:36:13.142Z,23.97
2018-12-26T12:38:42.162Z,25.63
2018-12-26T12:41:11.179Z,24.87
2018-12-26T12:43:40.213Z,25.07
2018-12-26T12:46:09.375Z,26.67
2018-12-26T12:48:38.545Z,30.03
2018-12-26T12:51:07.601Z,27.37
2018-12-26T12:53:36.714Z,32.10
2018-12-26T12:56:11.803Z,28.23
2018-12-26T12:58:35.640Z,34.97
2018-12-26T13:01:05.272Z,36.57
2018-12-26T13:03:34.516Z,33.20
2018-12-26T13:06:03.614Z,33.90
2018-12-26T13:08:32.648Z,36.00
2018-12-26T13:11:01.733Z,33.50
2018-12-26T13:13:31.805Z,38.50
2018-12-26T13:15:59.991Z,35.87
2018-12-26T13:18:28.995Z,38.40
2018-12-26T13:20:58.197Z,36.80
2018-12-26T13:23:27.298Z,37.30
2018-12-26T13:26:02.971Z,39.97
2018-12-26T13:28:32.302Z,37.03
2018-12-26T13:31:04.989Z,39.90
2018-12-26T13:33:31.276Z,39.70
2018-12-26T13:36:01.764Z,38.20
2018-12-26T13:38:30.751Z,38.77
2018-12-26T13:40:59.838Z,36.40
2018-12-26T13:43:28.849Z,37.23
2018-12-26T13:45:57.941Z,37.30
2018-12-26T13:48:26.976Z,38.17
2018-12-26T13:50:56.121Z,36.40
2018-12-26T13:53:25.246Z,35.37
2018-12-26T13:55:54.304Z,38.33
2018-12-26T13:58:23.663Z,38.83
2018-12-26T14:00:52.763Z,42.93
2018-12-26T14:03:22.295Z,42.60
2018-12-26T14:05:51.433Z,43.63
2018-12-26T14:08:20.607Z,43.80
2018-12-26T14:10:49.873Z,44.57
2018-12-26T14:13:19.047Z,39.77
2018-12-26T14:15:48.078Z,38.27
2018-12-26T14:18:17.797Z,41.93
2018-12-26T14:20:46.838Z,41.67
2018-12-26T14:23:15.939Z,39.87
2018-12-26T14:25:45.056Z,41.30
2018-12-26T14:28:14.161Z,35.77
2018-12-26T14:30:43.253Z,37.37
2018-12-26T14:33:12.304Z,37.70
2018-12-26T14:35:45.622Z,40.07
2018-12-26T14:38:14.766Z,46.23
2018-12-26T14:40:43.794Z,42.90
2018-12-26T14:43:12.899Z,37.20
2018-12-26T14:45:42.025Z,41.37
2018-12-26T14:48:11.015Z,32.50
2018-12-26T14:50:40.064Z,37.37
2018-12-26T14:53:09.109Z,35.30
2018-12-26T14:55:38.181Z,30.57
2018-12-26T14:58:07.232Z,32.43
2018-12-26T15:00:36.202Z,31.17
2018-12-26T15:03:05.195Z,34.80
2018-12-26T15:05:34.362Z,29.83
2018-12-26T15:08:03.640Z,29.90
2018-12-26T15:10:32.842Z,30.83
2018-12-26T15:13:01.870Z,30.57
2018-12-26T15:15:30.986Z,30.83
2018-12-26T15:18:00.108Z,26.37
2018-12-26T15:20:29.238Z,28.47
2018-12-26T15:22:58.339Z,31.00
2018-12-26T15:25:27.455Z,24.37
2018-12-26T15:27:56.466Z,26.50
2018-12-26T15:30:28.691Z,25.77
2018-12-26T15:32:54.550Z,28.67
2018-12-26T15:35:23.707Z,27.93
2018-12-26T15:37:52.893Z,29.67
2018-12-26T15:40:22.017Z,28.53
2018-12-26T15:42:51.089Z,32.77
2018-12-26T15:45:20.117Z,33.20
2018-12-26T15:47:49.292Z,31.03
2018-12-26T15:50:18.370Z,34.03
2018-12-26T15:52:47.460Z,33.80
2018-12-26T15:55:16.651Z,33.23
2018-12-26T15:57:45.798Z,32.33
2018-12-26T16:00:14.981Z,30.73
2018-12-26T16:02:44.259Z,35.13
2018-12-26T16:05:13.398Z,31.77
2018-12-26T16:07:42.528Z,32.30
2018-12-26T16:10:11.598Z,33.20
2018-12-26T16:12:40.666Z,34.13
2018-12-26T16:15:10.548Z,33.00
2018-12-26T16:17:39.598Z,32.93
2018-12-26T16:20:10.007Z,30.77
2018-12-26T16:22:39.767Z,38.03
2018-12-26T16:25:08.603Z,34.97
2018-12-26T16:27:37.653Z,38.07
2018-12-26T16:30:07.659Z,37.20
2018-12-26T16:32:36.819Z,39.10
2018-12-26T16:35:08.369Z,34.27
2018-12-26T16:37:37.499Z,38.50
2018-12-26T16:40:07.818Z,35.33
2018-12-26T16:42:36.947Z,34.73
2018-12-26T16:45:06.725Z,34.47
2018-12-26T16:47:36.038Z,37.57
2018-12-26T16:50:05.894Z,34.80
2018-12-26T16:52:35.037Z,37.00
2018-12-26T16:55:04.231Z,36.63
2018-12-26T16:57:33.255Z,38.93
2018-12-26T17:00:03.312Z,36.83
2018-12-26T17:02:33.363Z,39.77
2018-12-26T17:05:02.576Z,35.57
2018-12-26T17:07:37.864Z,39.47
2018-12-26T17:10:08.290Z,37.33
2018-12-26T17:12:39.141Z,39.73
2018-12-26T17:15:08.228Z,36.67
2018-12-26T17:17:37.287Z,61.93
2018-12-26T17:20:06.622Z,40.43
2018-12-26T17:22:35.825Z,38.23
2018-12-26T17:25:04.923Z,37.10
2018-12-26T17:27:34.307Z,35.60
2018-12-26T17:30:03.472Z,38.93
2018-12-26T17:32:32.571Z,32.87
2018-12-26T17:35:01.868Z,33.47
2018-12-26T17:37:30.988Z,32.57
2018-12-26T17:40:00.264Z,34.00
2018-12-26T17:42:29.711Z,36.03
2018-12-26T17:44:59.331Z,33.40
2018-12-26T17:47:28.375Z,32.20
2018-12-26T17:50:08.797Z,36.57
2018-12-26T17:52:38.035Z,36.80
2018-12-26T17:55:20.037Z,35.63
2018-12-26T17:57:52.773Z,51.27
2018-12-26T18:00:40.759Z,38.90
2018-12-26T18:03:09.797Z,39.63
2018-12-26T18:05:38.776Z,39.57
2018-12-26T18:08:07.753Z,38.27
2018-12-26T18:10:36.958Z,39.03
2018-12-26T18:13:06.275Z,47.87
2018-12-26T18:15:35.410Z,45.97
2018-12-26T18:18:05.384Z,47.83
2018-12-26T18:20:34.650Z,58.03
2018-12-26T18:23:03.985Z,59.13
2018-12-26T18:25:33.116Z,65.60
2018-12-26T18:28:02.585Z,65.83
2018-12-26T18:30:31.705Z,67.97
2018-12-26T18:33:00.847Z,71.43
2018-12-26T18:35:30.500Z,74.63
2018-12-26T18:37:59.686Z,76.70
2018-12-26T18:40:28.874Z,78.30
2018-12-26T18:42:58.088Z,71.73
2018-12-26T18:45:27.304Z,72.60
2018-12-26T18:47:56.463Z,75.80
2018-12-26T18:50:25.755Z,74.20
2018-12-26T18:52:54.924Z,75.20
2018-12-26T18:55:24.265Z,78.97
2018-12-26T18:57:53.667Z,79.53
2018-12-26T19:00:23.431Z,97.00
2018-12-26T19:02:53.465Z,86.47
2018-12-26T19:05:22.700Z,112.30
2018-12-26T19:07:51.987Z,113.93
2018-12-26T19:10:21.477Z,126.97
2018-12-26T19:12:50.761Z,111.97
2018-12-26T19:15:19.943Z,123.23
2018-12-26T19:17:49.100Z,140.27
2018-12-26T19:20:18.327Z,144.10
2018-12-26T19:22:47.374Z,156.67
2018-12-26T19:25:18.088Z,127.50
2018-12-26T19:27:47.344Z,146.80
2018-12-26T19:30:16.378Z,162.73
2018-12-26T19:35:24.893Z,139.57
2018-12-26T19:37:54.150Z,171.40
2018-12-26T19:40:23.425Z,179.63
2018-12-26T19:42:52.603Z,159.80
2018-12-26T19:45:21.617Z,135.93
2018-12-26T19:47:51.061Z,152.00
2018-12-26T19:50:20.483Z,146.77
2018-12-26T19:52:49.599Z,161.97
2018-12-26T19:55:18.663Z,148.37
2018-12-26T19:57:47.763Z,148.23
2018-12-26T20:00:16.905Z,122.87
2018-12-26T20:02:45.985Z,128.40
2018-12-26T20:05:15.635Z,130.33
2018-12-26T20:07:45.807Z,137.97
2018-12-26T20:10:16.063Z,132.80
2018-12-26T20:12:45.510Z,126.13
2018-12-26T20:15:15.211Z,138.27
2018-12-26T20:17:46.155Z,127.13
2018-12-26T20:20:16.459Z,139.23
2018-12-26T20:22:45.731Z,140.30
2018-12-26T20:25:15.330Z,152.27
2018-12-26T20:27:44.973Z,154.17
2018-12-26T20:30:14.374Z,132.17
2018-12-26T20:32:43.805Z,155.77
2018-12-26T20:35:13.134Z,143.63
2018-12-26T20:37:42.967Z,156.33
2018-12-26T20:40:12.120Z,129.70
2018-12-26T20:42:41.220Z,150.47
2018-12-26T20:45:10.426Z,132.23
2018-12-26T20:47:39.992Z,140.87
2018-12-26T20:50:09.870Z,136.67
2018-12-26T20:52:39.184Z,151.50
2018-12-26T20:55:08.441Z,139.90
2018-12-26T20:57:39.942Z,140.03
2018-12-26T21:00:10.641Z,143.00
2018-12-26T21:02:39.674Z,148.40
2018-12-26T21:05:10.265Z,132.67
2018-12-26T21:07:39.408Z,134.07
2018-12-26T21:10:08.963Z,132.97
2018-12-26T21:12:39.031Z,130.50
2018-12-26T21:15:08.245Z,135.57
2018-12-26T21:17:37.243Z,129.03
2018-12-26T21:20:08.383Z,131.13
2018-12-26T21:22:37.450Z,138.90
2018-12-26T21:25:07.954Z,130.50
2018-12-26T21:27:36.924Z,129.10
2018-12-26T21:30:08.933Z,126.03
2018-12-26T21:32:38.229Z,123.87
2018-12-26T21:35:07.270Z,118.63
2018-12-26T21:37:36.435Z,115.77
2018-12-26T21:40:05.969Z,120.57
2018-12-26T21:42:35.870Z,124.73
2018-12-26T21:45:04.986Z,120.20
2018-12-26T21:47:34.040Z,134.80
2018-12-26T21:50:03.270Z,132.50
2018-12-26T21:52:32.609Z,128.43
2018-12-26T21:55:01.710Z,136.07
2018-12-26T21:57:30.888Z,137.90
2018-12-26T21:59:59.980Z,128.63
2018-12-26T22:02:29.038Z,126.37
2018-12-26T22:04:58.056Z,125.40
2018-12-26T22:07:27.208Z,131.63
2018-12-26T22:09:56.379Z,133.93
2018-12-26T22:12:25.458Z,130.93
2018-12-26T22:14:54.840Z,123.77
2018-12-26T22:17:23.948Z,119.70
2018-12-26T22:22:45.011Z,114.80
2018-12-26T22:25:15.021Z,118.47
2018-12-26T22:27:45.529Z,120.97
2018-12-26T22:30:16.805Z,118.80
2018-12-26T22:32:49.355Z,112.37
2018-12-26T22:35:21.897Z,112.87
2018-12-26T22:37:51.415Z,112.33
2018-12-26T22:40:21.231Z,111.90
2018-12-26T22:42:50.964Z,109.43
2018-12-26T22:45:21.323Z,103.07
2018-12-26T22:47:51.467Z,98.33
2018-12-26T22:50:21.010Z,88.00
2018-12-26T22:52:50.914Z,94.63
2018-12-26T22:55:20.830Z,90.50
2018-12-26T22:57:50.612Z,85.17
2018-12-26T23:00:25.117Z,88.63
2018-12-26T23:02:54.621Z,84.90
2018-12-26T23:05:23.994Z,96.20
2018-12-26T23:07:53.468Z,92.17
2018-12-26T23:10:22.928Z,85.50
2018-12-26T23:12:52.751Z,88.37
2018-12-26T23:15:22.295Z,92.53
2018-12-26T23:17:52.374Z,75.67
2018-12-26T23:20:22.012Z,80.80
2018-12-26T23:22:52.240Z,77.90
2018-12-26T23:25:21.624Z,88.60
2018-12-26T23:27:50.689Z,85.77
2018-12-26T23:30:19.786Z,81.57
2018-12-26T23:32:48.853Z,77.67
2018-12-26T23:35:18.321Z,81.83
2018-12-26T23:37:47.466Z,79.67
2018-12-26T23:40:16.495Z,71.63
2018-12-26T23:42:45.467Z,74.63
2018-12-26T23:45:14.682Z,69.93
2018-12-26T23:47:44.048Z,77.33
2018-12-26T23:50:13.056Z,68.00
2018-12-26T23:52:42.080Z,62.80
2018-12-26T23:55:11.076Z,72.97
2018-12-26T23:57:40.296Z,63.87
